sensor_id;sensor_type;location;lat;lon;timestamp;temperature;humidity
12013;DHT22;6065;48.138;16.402;2022-10-04T00:00:08;13.40;99.90
12013;DHT22;6065;48.138;16.402;2022-10-04T00:02:37;13.40;99.90
12013;DHT22;6065;48.138;16.402;2022-10-04T00:05:05;13.40;99.90
12013;DHT22;6065;48.138;16.402;2022-10-04T00:07:34;13.30;99.90
12013;DHT22;6065;48.138;16.402;2022-10-04T00:10:04;13.30;99.90
12013;DHT22;6065;48.138;16.402;2022-10-04T00:12:33;13.30;99.90
12013;DHT22;6065;48.138;16.402;2022-10-04T00:15:04;13.30;99.90
12013;DHT22;6065;48.138;16.402;2022-10-04T00:17:32;13.30;99.90
12013;DHT22;6065;48.138;16.402;2022-10-04T00:20:02;13.20;99.90
12013;DHT22;6065;48.138;16.402;2022-10-04T00:22:30;13.20;99.90
12013;DHT22;6065;48.138;16.402;2022-10-04T00:30:35;13.20;99.90
12013;DHT22;6065;48.138;16.402;2022-10-04T00:33:03;13.20;99.90
12013;DHT22;6065;48.138;16.402;2022-10-04T00:35:46;13.20;99.90
12013;DHT22;6065;48.138;16.402;2022-10-04T00:38:14;13.20;99.90
12013;DHT22;6065;48.138;16.402;2022-10-04T00:40:43;13.20;99.90
12013;DHT22;6065;48.138;16.402;2022-10-04T00:43:12;13.20;99.90
12013;DHT22;6065;48.138;16.402;2022-10-04T00:45:41;13.20;99.90
12013;DHT22;6065;48.138;16.402;2022-10-04T00:51:16;13.10;99.90
12013;DHT22;6065;48.138;16.402;2022-10-04T00:53:47;13.20;99.90
12013;DHT22;6065;48.138;16.402;2022-10-04T00:56:18;13.10;99.90
12013;DHT22;6065;48.138;16.402;2022-10-04T00:58:59;13.20;99.90
12013;DHT22;6065;48.138;16.402;2022-10-04T01:01:28;13.20;99.90
12013;DHT22;6065;48.138;16.402;2022-10-04T01:03:59;13.10;99.90
12013;DHT22;6065;48.138;16.402;2022-10-04T01:06:28;13.10;99.90
12013;DHT22;6065;48.138;16.402;2022-10-04T01:09:00;13.10;99.90
12013;DHT22;6065;48.138;16.402;2022-10-04T01:11:29;13.10;99.90
12013;DHT22;6065;48.138;16.402;2022-10-04T01:14:00;13.10;99.90
12013;DHT22;6065;48.138;16.402;2022-10-04T01:16:31;13.20;99.90
12013;DHT22;6065;48.138;16.402;2022-10-04T01:19:02;13.20;99.90
12013;DHT22;6065;48.138;16.402;2022-10-04T01:21:55;13.10;99.90
12013;DHT22;6065;48.138;16.402;2022-10-04T01:24:24;13.20;99.90
12013;DHT22;6065;48.138;16.402;2022-10-04T01:26:58;13.20;99.90
12013;DHT22;6065;48.138;16.402;2022-10-04T01:29:29;13.20;99.90
12013;DHT22;6065;48.138;16.402;2022-10-04T01:31:57;13.20;99.90
12013;DHT22;6065;48.138;16.402;2022-10-04T01:34:25;13.20;99.90
12013;DHT22;6065;48.138;16.402;2022-10-04T01:36:56;13.20;99.90
12013;DHT22;6065;48.138;16.402;2022-10-04T01:39:25;13.10;99.90
12013;DHT22;6065;48.138;16.402;2022-10-04T01:41:54;13.10;99.90
12013;DHT22;6065;48.138;16.402;2022-10-04T01:44:28;13.20;99.90
12013;DHT22;6065;48.138;16.402;2022-10-04T01:46:57;13.20;99.90
12013;DHT22;6065;48.138;16.402;2022-10-04T01:49:26;13.20;99.90
12013;DHT22;6065;48.138;16.402;2022-10-04T01:51:54;13.20;99.90
12013;DHT22;6065;48.138;16.402;2022-10-04T01:54:29;13.10;99.90
12013;DHT22;6065;48.138;16.402;2022-10-04T01:56:57;13.10;99.90
12013;DHT22;6065;48.138;16.402;2022-10-04T01:59:26;13.10;99.90
12013;DHT22;6065;48.138;16.402;2022-10-04T02:01:56;13.10;99.90
12013;DHT22;6065;48.138;16.402;2022-10-04T02:04:26;13.10;99.90
12013;DHT22;6065;48.138;16.402;2022-10-04T02:06:55;13.10;99.90
12013;DHT22;6065;48.138;16.402;2022-10-04T02:09:24;13.10;99.90
12013;DHT22;6065;48.138;16.402;2022-10-04T02:11:56;13.20;99.90
12013;DHT22;6065;48.138;16.402;2022-10-04T02:14:24;13.20;99.90
12013;DHT22;6065;48.138;16.402;2022-10-04T02:16:52;13.20;99.90
12013;DHT22;6065;48.138;16.402;2022-10-04T02:19:20;13.20;99.90
12013;DHT22;6065;48.138;16.402;2022-10-04T02:21:47;13.20;99.90
12013;DHT22;6065;48.138;16.402;2022-10-04T02:24:14;13.20;99.90
12013;DHT22;6065;48.138;16.402;2022-10-04T02:26:47;13.20;99.90
12013;DHT22;6065;48.138;16.402;2022-10-04T02:29:16;13.20;99.90
12013;DHT22;6065;48.138;16.402;2022-10-04T02:31:43;13.20;99.90
12013;DHT22;6065;48.138;16.402;2022-10-04T02:34:30;13.10;99.90
12013;DHT22;6065;48.138;16.402;2022-10-04T02:36:59;13.10;99.90
12013;DHT22;6065;48.138;16.402;2022-10-04T02:39:29;13.20;99.90
12013;DHT22;6065;48.138;16.402;2022-10-04T02:42:02;13.10;99.90
12013;DHT22;6065;48.138;16.402;2022-10-04T02:44:32;13.20;99.90
12013;DHT22;6065;48.138;16.402;2022-10-04T02:47:04;13.20;99.90
12013;DHT22;6065;48.138;16.402;2022-10-04T02:49:33;13.20;99.90
12013;DHT22;6065;48.138;16.402;2022-10-04T02:52:04;13.10;99.90
12013;DHT22;6065;48.138;16.402;2022-10-04T02:54:34;13.20;99.90
12013;DHT22;6065;48.138;16.402;2022-10-04T02:57:02;13.20;99.90
12013;DHT22;6065;48.138;16.402;2022-10-04T02:59:31;13.10;99.90
12013;DHT22;6065;48.138;16.402;2022-10-04T03:02:00;13.20;99.90
12013;DHT22;6065;48.138;16.402;2022-10-04T03:04:28;13.20;99.90
12013;DHT22;6065;48.138;16.402;2022-10-04T03:06:59;13.20;99.90
12013;DHT22;6065;48.138;16.402;2022-10-04T03:09:28;13.20;99.90
12013;DHT22;6065;48.138;16.402;2022-10-04T03:11:55;13.20;99.90
12013;DHT22;6065;48.138;16.402;2022-10-04T03:14:25;13.20;99.90
12013;DHT22;6065;48.138;16.402;2022-10-04T03:16:56;13.20;99.90
12013;DHT22;6065;48.138;16.402;2022-10-04T03:19:25;13.20;99.90
12013;DHT22;6065;48.138;16.402;2022-10-04T03:21:55;13.20;99.90
12013;DHT22;6065;48.138;16.402;2022-10-04T03:24:24;13.20;99.90
12013;DHT22;6065;48.138;16.402;2022-10-04T03:26:58;13.20;99.90
12013;DHT22;6065;48.138;16.402;2022-10-04T03:29:27;13.20;99.90
12013;DHT22;6065;48.138;16.402;2022-10-04T03:31:56;13.20;99.90
12013;DHT22;6065;48.138;16.402;2022-10-04T03:34:24;13.20;99.90
12013;DHT22;6065;48.138;16.402;2022-10-04T03:36:52;13.10;99.90
12013;DHT22;6065;48.138;16.402;2022-10-04T03:39:26;13.20;99.90
12013;DHT22;6065;48.138;16.402;2022-10-04T03:42:00;13.20;99.90
12013;DHT22;6065;48.138;16.402;2022-10-04T03:44:29;13.10;99.90
12013;DHT22;6065;48.138;16.402;2022-10-04T03:46:59;13.10;99.90
12013;DHT22;6065;48.138;16.402;2022-10-04T03:49:30;13.10;99.90
12013;DHT22;6065;48.138;16.402;2022-10-04T03:51:59;13.10;99.90
12013;DHT22;6065;48.138;16.402;2022-10-04T03:54:27;13.10;99.90
12013;DHT22;6065;48.138;16.402;2022-10-04T03:56:54;13.10;99.90
12013;DHT22;6065;48.138;16.402;2022-10-04T03:59:24;13.10;99.90
12013;DHT22;6065;48.138;16.402;2022-10-04T04:02:01;13.10;99.90
12013;DHT22;6065;48.138;16.402;2022-10-04T04:04:33;13.10;99.90
12013;DHT22;6065;48.138;16.402;2022-10-04T04:07:02;13.10;99.90
12013;DHT22;6065;48.138;16.402;2022-10-04T04:09:34;13.10;99.90
12013;DHT22;6065;48.138;16.402;2022-10-04T04:12:03;13.10;99.90
12013;DHT22;6065;48.138;16.402;2022-10-04T04:14:32;13.10;99.90
12013;DHT22;6065;48.138;16.402;2022-10-04T04:17:15;13.10;99.90
12013;DHT22;6065;48.138;16.402;2022-10-04T04:19:43;13.10;99.90
12013;DHT22;6065;48.138;16.402;2022-10-04T04:22:11;13.10;99.90
12013;DHT22;6065;48.138;16.402;2022-10-04T04:24:41;13.10;99.90
12013;DHT22;6065;48.138;16.402;2022-10-04T04:27:09;13.10;99.90
12013;DHT22;6065;48.138;16.402;2022-10-04T04:29:38;13.10;99.90
12013;DHT22;6065;48.138;16.402;2022-10-04T04:32:11;13.10;99.90
12013;DHT22;6065;48.138;16.402;2022-10-04T04:34:49;13.10;99.90
12013;DHT22;6065;48.138;16.402;2022-10-04T04:37:17;13.10;99.90
12013;DHT22;6065;48.138;16.402;2022-10-04T04:39:47;13.10;99.90
12013;DHT22;6065;48.138;16.402;2022-10-04T04:42:17;13.10;99.90
12013;DHT22;6065;48.138;16.402;2022-10-04T04:44:45;13.10;99.90
12013;DHT22;6065;48.138;16.402;2022-10-04T04:47:16;13.10;99.90
12013;DHT22;6065;48.138;16.402;2022-10-04T04:49:47;13.10;99.90
12013;DHT22;6065;48.138;16.402;2022-10-04T04:52:15;13.10;99.90
12013;DHT22;6065;48.138;16.402;2022-10-04T04:54:43;13.10;99.90
12013;DHT22;6065;48.138;16.402;2022-10-04T04:57:13;13.10;99.90
12013;DHT22;6065;48.138;16.402;2022-10-04T04:59:41;13.10;99.90
12013;DHT22;6065;48.138;16.402;2022-10-04T05:07:37;13.10;99.90
12013;DHT22;6065;48.138;16.402;2022-10-04T05:10:18;13.10;99.90
12013;DHT22;6065;48.138;16.402;2022-10-04T05:12:45;13.10;99.90
12013;DHT22;6065;48.138;16.402;2022-10-04T05:15:13;13.10;99.90
12013;DHT22;6065;48.138;16.402;2022-10-04T05:17:40;13.10;99.90
12013;DHT22;6065;48.138;16.402;2022-10-04T05:20:09;13.10;99.90
12013;DHT22;6065;48.138;16.402;2022-10-04T05:22:38;13.10;99.90
12013;DHT22;6065;48.138;16.402;2022-10-04T05:25:08;13.10;99.90
12013;DHT22;6065;48.138;16.402;2022-10-04T05:27:40;13.10;99.90
12013;DHT22;6065;48.138;16.402;2022-10-04T05:30:12;13.10;99.90
12013;DHT22;6065;48.138;16.402;2022-10-04T05:32:43;13.10;99.90
12013;DHT22;6065;48.138;16.402;2022-10-04T05:35:14;13.10;99.90
12013;DHT22;6065;48.138;16.402;2022-10-04T05:37:50;13.10;99.90
12013;DHT22;6065;48.138;16.402;2022-10-04T05:43:18;13.10;99.90
12013;DHT22;6065;48.138;16.402;2022-10-04T05:45:47;13.10;99.90
12013;DHT22;6065;48.138;16.402;2022-10-04T05:48:15;13.10;99.90
12013;DHT22;6065;48.138;16.402;2022-10-04T05:50:43;13.10;99.90
12013;DHT22;6065;48.138;16.402;2022-10-04T05:53:17;13.10;99.90
12013;DHT22;6065;48.138;16.402;2022-10-04T05:55:48;13.10;99.90
12013;DHT22;6065;48.138;16.402;2022-10-04T05:58:23;13.10;99.90
12013;DHT22;6065;48.138;16.402;2022-10-04T06:01:04;13.10;99.90
12013;DHT22;6065;48.138;16.402;2022-10-04T06:03:36;13.10;99.90
12013;DHT22;6065;48.138;16.402;2022-10-04T06:06:11;13.20;99.90
12013;DHT22;6065;48.138;16.402;2022-10-04T06:08:45;13.20;99.90
12013;DHT22;6065;48.138;16.402;2022-10-04T06:11:17;13.10;99.90
12013;DHT22;6065;48.138;16.402;2022-10-04T06:13:52;13.10;99.90
12013;DHT22;6065;48.138;16.402;2022-10-04T06:16:25;13.20;99.90
12013;DHT22;6065;48.138;16.402;2022-10-04T06:19:03;13.20;99.90
12013;DHT22;6065;48.138;16.402;2022-10-04T06:21:33;13.20;99.90
12013;DHT22;6065;48.138;16.402;2022-10-04T06:24:07;13.20;99.90
12013;DHT22;6065;48.138;16.402;2022-10-04T06:26:36;13.20;99.90
12013;DHT22;6065;48.138;16.402;2022-10-04T06:29:05;13.20;99.90
12013;DHT22;6065;48.138;16.402;2022-10-04T06:34:34;13.20;99.90
12013;DHT22;6065;48.138;16.402;2022-10-04T06:40:02;13.20;99.90
12013;DHT22;6065;48.138;16.402;2022-10-04T06:42:37;13.20;99.90
12013;DHT22;6065;48.138;16.402;2022-10-04T06:45:11;13.20;99.90
12013;DHT22;6065;48.138;16.402;2022-10-04T06:47:48;13.20;99.90
12013;DHT22;6065;48.138;16.402;2022-10-04T06:50:22;13.30;99.90
12013;DHT22;6065;48.138;16.402;2022-10-04T06:52:57;13.30;99.90
12013;DHT22;6065;48.138;16.402;2022-10-04T06:55:37;13.30;99.90
12013;DHT22;6065;48.138;16.402;2022-10-04T06:58:19;13.30;99.90
12013;DHT22;6065;48.138;16.402;2022-10-04T07:00:51;13.30;99.90
12013;DHT22;6065;48.138;16.402;2022-10-04T07:03:20;13.30;99.90
12013;DHT22;6065;48.138;16.402;2022-10-04T07:05:49;13.30;99.90
12013;DHT22;6065;48.138;16.402;2022-10-04T07:08:20;13.40;99.90
12013;DHT22;6065;48.138;16.402;2022-10-04T07:10:59;13.30;99.90
12013;DHT22;6065;48.138;16.402;2022-10-04T07:13:40;13.40;99.90
12013;DHT22;6065;48.138;16.402;2022-10-04T07:16:11;13.30;99.90
12013;DHT22;6065;48.138;16.402;2022-10-04T07:18:46;13.40;99.90
12013;DHT22;6065;48.138;16.402;2022-10-04T07:21:14;13.30;99.90
12013;DHT22;6065;48.138;16.402;2022-10-04T07:23:43;13.40;99.90
12013;DHT22;6065;48.138;16.402;2022-10-04T07:26:16;13.40;99.90
12013;DHT22;6065;48.138;16.402;2022-10-04T07:28:46;13.40;99.90
12013;DHT22;6065;48.138;16.402;2022-10-04T07:31:33;13.40;99.90
12013;DHT22;6065;48.138;16.402;2022-10-04T07:34:02;13.40;99.90
12013;DHT22;6065;48.138;16.402;2022-10-04T07:36:40;13.40;99.90
12013;DHT22;6065;48.138;16.402;2022-10-04T07:39:10;13.50;99.90
12013;DHT22;6065;48.138;16.402;2022-10-04T07:41:43;13.50;99.90
12013;DHT22;6065;48.138;16.402;2022-10-04T07:44:13;13.60;99.90
12013;DHT22;6065;48.138;16.402;2022-10-04T07:46:45;13.60;99.90
12013;DHT22;6065;48.138;16.402;2022-10-04T07:49:14;13.60;99.90
12013;DHT22;6065;48.138;16.402;2022-10-04T07:51:43;13.70;99.90
12013;DHT22;6065;48.138;16.402;2022-10-04T07:54:11;13.60;99.90
12013;DHT22;6065;48.138;16.402;2022-10-04T07:56:44;13.70;99.90
12013;DHT22;6065;48.138;16.402;2022-10-04T07:59:18;13.70;99.90
12013;DHT22;6065;48.138;16.402;2022-10-04T08:01:49;13.70;99.90
12013;DHT22;6065;48.138;16.402;2022-10-04T08:04:29;13.80;99.90
12013;DHT22;6065;48.138;16.402;2022-10-04T08:06:58;13.80;99.90
12013;DHT22;6065;48.138;16.402;2022-10-04T08:09:37;13.90;99.90
12013;DHT22;6065;48.138;16.402;2022-10-04T08:12:12;14.00;99.90
12013;DHT22;6065;48.138;16.402;2022-10-04T08:14:47;14.00;99.90
12013;DHT22;6065;48.138;16.402;2022-10-04T08:17:19;14.10;99.90
12013;DHT22;6065;48.138;16.402;2022-10-04T08:19:50;14.10;99.90
12013;DHT22;6065;48.138;16.402;2022-10-04T08:22:22;14.20;99.90
12013;DHT22;6065;48.138;16.402;2022-10-04T08:24:58;14.20;99.90
12013;DHT22;6065;48.138;16.402;2022-10-04T08:27:34;14.30;99.90
12013;DHT22;6065;48.138;16.402;2022-10-04T08:30:04;14.30;99.90
12013;DHT22;6065;48.138;16.402;2022-10-04T08:32:48;14.40;99.90
12013;DHT22;6065;48.138;16.402;2022-10-04T08:35:29;14.40;99.90
12013;DHT22;6065;48.138;16.402;2022-10-04T08:40:46;14.50;99.90
12013;DHT22;6065;48.138;16.402;2022-10-04T08:43:22;14.50;99.90
12013;DHT22;6065;48.138;16.402;2022-10-04T08:46:19;14.60;99.90
12013;DHT22;6065;48.138;16.402;2022-10-04T08:48:59;14.60;99.90
12013;DHT22;6065;48.138;16.402;2022-10-04T08:54:20;14.60;99.90
12013;DHT22;6065;48.138;16.402;2022-10-04T08:56:56;14.70;99.90
12013;DHT22;6065;48.138;16.402;2022-10-04T09:04:59;14.80;99.90
12013;DHT22;6065;48.138;16.402;2022-10-04T09:15:50;14.80;99.90
12013;DHT22;6065;48.138;16.402;2022-10-04T09:18:19;14.80;99.90
12013;DHT22;6065;48.138;16.402;2022-10-04T09:20:53;14.80;99.90
12013;DHT22;6065;48.138;16.402;2022-10-04T09:23:36;14.80;99.90
12013;DHT22;6065;48.138;16.402;2022-10-04T09:26:13;14.80;99.90
12013;DHT22;6065;48.138;16.402;2022-10-04T09:31:42;14.90;99.90
12013;DHT22;6065;48.138;16.402;2022-10-04T09:34:16;14.90;99.90
12013;DHT22;6065;48.138;16.402;2022-10-04T09:37:03;14.90;99.90
12013;DHT22;6065;48.138;16.402;2022-10-04T09:39:37;14.90;99.90
12013;DHT22;6065;48.138;16.402;2022-10-04T09:42:13;15.00;99.90
12013;DHT22;6065;48.138;16.402;2022-10-04T09:47:44;15.00;99.90
12013;DHT22;6065;48.138;16.402;2022-10-04T09:50:36;15.00;99.90
12013;DHT22;6065;48.138;16.402;2022-10-04T09:55:59;15.10;99.90
12013;DHT22;6065;48.138;16.402;2022-10-04T09:58:36;15.10;99.90
12013;DHT22;6065;48.138;16.402;2022-10-04T10:01:12;15.10;99.90
12013;DHT22;6065;48.138;16.402;2022-10-04T10:03:55;15.10;99.90
12013;DHT22;6065;48.138;16.402;2022-10-04T10:09:28;15.20;99.90
12013;DHT22;6065;48.138;16.402;2022-10-04T10:12:19;15.20;99.90
12013;DHT22;6065;48.138;16.402;2022-10-04T10:15:17;15.30;99.90
12013;DHT22;6065;48.138;16.402;2022-10-04T10:17:49;15.40;99.90
12013;DHT22;6065;48.138;16.402;2022-10-04T10:20:23;15.40;99.90
12013;DHT22;6065;48.138;16.402;2022-10-04T10:25:43;15.50;99.90
12013;DHT22;6065;48.138;16.402;2022-10-04T10:28:21;15.50;99.90
12013;DHT22;6065;48.138;16.402;2022-10-04T10:30:57;15.60;99.90
12013;DHT22;6065;48.138;16.402;2022-10-04T10:39:03;15.90;99.90
12013;DHT22;6065;48.138;16.402;2022-10-04T10:41:38;16.00;99.90
12013;DHT22;6065;48.138;16.402;2022-10-04T10:44:20;16.20;99.90
12013;DHT22;6065;48.138;16.402;2022-10-04T10:46:54;16.30;99.90
12013;DHT22;6065;48.138;16.402;2022-10-04T10:55:14;16.40;99.90
12013;DHT22;6065;48.138;16.402;2022-10-04T10:57:52;16.40;99.90
12013;DHT22;6065;48.138;16.402;2022-10-04T11:00:23;16.50;99.70
12013;DHT22;6065;48.138;16.402;2022-10-04T11:05:55;16.50;99.70
12013;DHT22;6065;48.138;16.402;2022-10-04T11:14:25;16.60;99.90
12013;DHT22;6065;48.138;16.402;2022-10-04T11:17:06;16.60;99.60
12013;DHT22;6065;48.138;16.402;2022-10-04T11:19:54;16.80;99.50
12013;DHT22;6065;48.138;16.402;2022-10-04T11:28:02;17.10;99.00
12013;DHT22;6065;48.138;16.402;2022-10-04T11:30:33;17.00;99.00
12013;DHT22;6065;48.138;16.402;2022-10-04T11:38:45;17.10;99.40
12013;DHT22;6065;48.138;16.402;2022-10-04T11:41:17;17.20;99.00
12013;DHT22;6065;48.138;16.402;2022-10-04T11:43:59;17.40;98.80
12013;DHT22;6065;48.138;16.402;2022-10-04T11:46:34;17.50;98.20
12013;DHT22;6065;48.138;16.402;2022-10-04T11:49:05;17.40;97.80
12013;DHT22;6065;48.138;16.402;2022-10-04T11:54:49;17.30;98.10
12013;DHT22;6065;48.138;16.402;2022-10-04T11:57:24;17.30;98.40
12013;DHT22;6065;48.138;16.402;2022-10-04T11:59:55;17.30;98.20
12013;DHT22;6065;48.138;16.402;2022-10-04T12:02:35;17.30;98.10
12013;DHT22;6065;48.138;16.402;2022-10-04T12:05:12;17.40;98.20
12013;DHT22;6065;48.138;16.402;2022-10-04T12:07:47;17.30;98.20
12013;DHT22;6065;48.138;16.402;2022-10-04T12:10:23;17.20;98.20
12013;DHT22;6065;48.138;16.402;2022-10-04T12:12:57;17.30;98.40
12013;DHT22;6065;48.138;16.402;2022-10-04T12:15:40;17.30;98.10
12013;DHT22;6065;48.138;16.402;2022-10-04T12:23:59;17.40;97.90
12013;DHT22;6065;48.138;16.402;2022-10-04T12:26:38;17.40;98.10
12013;DHT22;6065;48.138;16.402;2022-10-04T12:31:53;17.30;97.90
12013;DHT22;6065;48.138;16.402;2022-10-04T12:34:23;17.30;97.80
12013;DHT22;6065;48.138;16.402;2022-10-04T12:37:01;17.30;97.50
12013;DHT22;6065;48.138;16.402;2022-10-04T12:39:33;17.30;97.40
12013;DHT22;6065;48.138;16.402;2022-10-04T12:42:10;17.40;97.50
12013;DHT22;6065;48.138;16.402;2022-10-04T12:44:42;17.50;97.60
12013;DHT22;6065;48.138;16.402;2022-10-04T12:49:53;17.50;97.40
12013;DHT22;6065;48.138;16.402;2022-10-04T12:52:23;17.50;96.70
12013;DHT22;6065;48.138;16.402;2022-10-04T12:54:53;17.40;96.80
12013;DHT22;6065;48.138;16.402;2022-10-04T12:57:30;17.40;96.60
12013;DHT22;6065;48.138;16.402;2022-10-04T13:00:02;17.40;96.70
12013;DHT22;6065;48.138;16.402;2022-10-04T13:02:34;17.30;96.90
12013;DHT22;6065;48.138;16.402;2022-10-04T13:05:05;17.20;97.20
12013;DHT22;6065;48.138;16.402;2022-10-04T13:07:48;17.30;97.20
12013;DHT22;6065;48.138;16.402;2022-10-04T13:10:28;17.20;97.30
12013;DHT22;6065;48.138;16.402;2022-10-04T13:13:03;17.20;97.50
12013;DHT22;6065;48.138;16.402;2022-10-04T13:15:35;17.20;97.70
12013;DHT22;6065;48.138;16.402;2022-10-04T13:18:07;17.30;97.70
12013;DHT22;6065;48.138;16.402;2022-10-04T13:20:39;17.40;97.80
12013;DHT22;6065;48.138;16.402;2022-10-04T13:23:19;17.40;97.90
12013;DHT22;6065;48.138;16.402;2022-10-04T13:25:55;17.40;97.30
12013;DHT22;6065;48.138;16.402;2022-10-04T13:28:26;17.40;97.30
12013;DHT22;6065;48.138;16.402;2022-10-04T13:30:57;17.40;97.20
12013;DHT22;6065;48.138;16.402;2022-10-04T13:33:27;17.30;97.10
12013;DHT22;6065;48.138;16.402;2022-10-04T13:35:58;17.40;97.10
12013;DHT22;6065;48.138;16.402;2022-10-04T13:38:34;17.30;96.90
12013;DHT22;6065;48.138;16.402;2022-10-04T13:41:16;17.20;96.70
12013;DHT22;6065;48.138;16.402;2022-10-04T13:46:30;17.20;96.90
12013;DHT22;6065;48.138;16.402;2022-10-04T13:49:10;17.20;97.10
12013;DHT22;6065;48.138;16.402;2022-10-04T13:51:45;17.20;97.20
12013;DHT22;6065;48.138;16.402;2022-10-04T13:54:37;17.20;97.30
12013;DHT22;6065;48.138;16.402;2022-10-04T13:57:24;17.20;97.20
12013;DHT22;6065;48.138;16.402;2022-10-04T13:59:58;17.20;97.10
12013;DHT22;6065;48.138;16.402;2022-10-04T14:10:48;17.30;97.00
12013;DHT22;6065;48.138;16.402;2022-10-04T14:19:12;17.20;96.60
12013;DHT22;6065;48.138;16.402;2022-10-04T14:21:52;17.30;96.80
12013;DHT22;6065;48.138;16.402;2022-10-04T14:29:55;17.40;96.40
12013;DHT22;6065;48.138;16.402;2022-10-04T14:35:07;17.50;96.10
12013;DHT22;6065;48.138;16.402;2022-10-04T14:40:22;17.50;95.80
12013;DHT22;6065;48.138;16.402;2022-10-04T14:42:59;17.50;95.90
12013;DHT22;6065;48.138;16.402;2022-10-04T14:45:35;17.50;95.80
12013;DHT22;6065;48.138;16.402;2022-10-04T14:51:09;17.50;95.70
12013;DHT22;6065;48.138;16.402;2022-10-04T14:53:40;17.50;96.10
12013;DHT22;6065;48.138;16.402;2022-10-04T14:59:01;17.40;96.60
12013;DHT22;6065;48.138;16.402;2022-10-04T15:01:32;17.40;97.10
12013;DHT22;6065;48.138;16.402;2022-10-04T15:04:12;17.40;95.80
12013;DHT22;6065;48.138;16.402;2022-10-04T15:06:46;17.40;95.20
12013;DHT22;6065;48.138;16.402;2022-10-04T15:09:18;17.40;95.30
12013;DHT22;6065;48.138;16.402;2022-10-04T15:11:52;17.40;95.40
12013;DHT22;6065;48.138;16.402;2022-10-04T15:14:28;17.40;95.20
12013;DHT22;6065;48.138;16.402;2022-10-04T15:17:02;17.40;95.20
12013;DHT22;6065;48.138;16.402;2022-10-04T15:19:30;17.40;95.50
12013;DHT22;6065;48.138;16.402;2022-10-04T15:22:00;17.30;95.70
12013;DHT22;6065;48.138;16.402;2022-10-04T15:24:29;17.30;95.90
12013;DHT22;6065;48.138;16.402;2022-10-04T15:29:42;17.30;96.00
12013;DHT22;6065;48.138;16.402;2022-10-04T15:32:17;17.30;96.00
12013;DHT22;6065;48.138;16.402;2022-10-04T15:34:46;17.20;96.00
12013;DHT22;6065;48.138;16.402;2022-10-04T15:37:18;17.20;96.00
12013;DHT22;6065;48.138;16.402;2022-10-04T15:42:52;17.20;96.20
12013;DHT22;6065;48.138;16.402;2022-10-04T15:45:22;17.10;96.20
12013;DHT22;6065;48.138;16.402;2022-10-04T15:47:55;17.10;96.20
12013;DHT22;6065;48.138;16.402;2022-10-04T15:50:25;17.10;96.30
12013;DHT22;6065;48.138;16.402;2022-10-04T15:56:03;17.00;96.30
12013;DHT22;6065;48.138;16.402;2022-10-04T15:58:34;17.00;96.40
12013;DHT22;6065;48.138;16.402;2022-10-04T16:01:12;17.00;96.40
12013;DHT22;6065;48.138;16.402;2022-10-04T16:03:46;16.90;96.70
12013;DHT22;6065;48.138;16.402;2022-10-04T16:06:19;16.90;96.70
12013;DHT22;6065;48.138;16.402;2022-10-04T16:09:07;16.90;96.70
12013;DHT22;6065;48.138;16.402;2022-10-04T16:11:55;16.80;96.70
12013;DHT22;6065;48.138;16.402;2022-10-04T16:14:37;16.80;96.80
12013;DHT22;6065;48.138;16.402;2022-10-04T16:17:20;16.70;96.90
12013;DHT22;6065;48.138;16.402;2022-10-04T16:19:55;16.70;97.10
12013;DHT22;6065;48.138;16.402;2022-10-04T16:22:26;16.60;97.40
12013;DHT22;6065;48.138;16.402;2022-10-04T16:24:56;16.60;97.80
12013;DHT22;6065;48.138;16.402;2022-10-04T16:27:34;16.50;98.00
12013;DHT22;6065;48.138;16.402;2022-10-04T16:30:10;16.40;98.20
12013;DHT22;6065;48.138;16.402;2022-10-04T16:32:41;16.40;98.30
12013;DHT22;6065;48.138;16.402;2022-10-04T16:35:16;16.30;98.40
12013;DHT22;6065;48.138;16.402;2022-10-04T16:37:53;16.30;98.60
12013;DHT22;6065;48.138;16.402;2022-10-04T16:40:32;16.20;98.80
12013;DHT22;6065;48.138;16.402;2022-10-04T16:43:01;16.20;99.00
12013;DHT22;6065;48.138;16.402;2022-10-04T16:45:31;16.10;99.10
12013;DHT22;6065;48.138;16.402;2022-10-04T16:48:00;16.10;99.40
12013;DHT22;6065;48.138;16.402;2022-10-04T16:50:47;16.00;99.50
12013;DHT22;6065;48.138;16.402;2022-10-04T16:53:19;16.00;99.70
12013;DHT22;6065;48.138;16.402;2022-10-04T16:55:50;15.90;99.80
12013;DHT22;6065;48.138;16.402;2022-10-04T17:03:51;15.70;99.90
12013;DHT22;6065;48.138;16.402;2022-10-04T17:06:24;15.60;99.90
12013;DHT22;6065;48.138;16.402;2022-10-04T17:09:03;15.50;99.90
12013;DHT22;6065;48.138;16.402;2022-10-04T17:11:42;15.50;99.90
12013;DHT22;6065;48.138;16.402;2022-10-04T17:14:28;15.50;99.90
12013;DHT22;6065;48.138;16.402;2022-10-04T17:16:58;15.50;99.90
12013;DHT22;6065;48.138;16.402;2022-10-04T17:19:29;15.40;99.90
12013;DHT22;6065;48.138;16.402;2022-10-04T17:22:12;15.40;99.90
12013;DHT22;6065;48.138;16.402;2022-10-04T17:24:52;15.30;99.90
12013;DHT22;6065;48.138;16.402;2022-10-04T17:27:24;15.20;99.90
12013;DHT22;6065;48.138;16.402;2022-10-04T17:30:01;15.10;99.90
12013;DHT22;6065;48.138;16.402;2022-10-04T17:32:31;15.10;99.90
12013;DHT22;6065;48.138;16.402;2022-10-04T17:35:05;14.90;99.90
12013;DHT22;6065;48.138;16.402;2022-10-04T17:37:39;14.90;99.90
12013;DHT22;6065;48.138;16.402;2022-10-04T17:40:22;14.90;99.90
12013;DHT22;6065;48.138;16.402;2022-10-04T17:42:54;14.80;99.90
12013;DHT22;6065;48.138;16.402;2022-10-04T17:45:30;14.80;99.90
12013;DHT22;6065;48.138;16.402;2022-10-04T17:48:01;14.90;99.90
12013;DHT22;6065;48.138;16.402;2022-10-04T17:50:49;14.80;99.90
12013;DHT22;6065;48.138;16.402;2022-10-04T17:53:40;14.70;99.90
12013;DHT22;6065;48.138;16.402;2022-10-04T17:56:29;14.60;99.90
12013;DHT22;6065;48.138;16.402;2022-10-04T17:58:56;14.60;99.90
12013;DHT22;6065;48.138;16.402;2022-10-04T18:01:25;14.50;99.90
12013;DHT22;6065;48.138;16.402;2022-10-04T18:03:55;14.50;99.90
12013;DHT22;6065;48.138;16.402;2022-10-04T18:06:25;14.40;99.90
12013;DHT22;6065;48.138;16.402;2022-10-04T18:08:55;14.40;99.90
12013;DHT22;6065;48.138;16.402;2022-10-04T18:11:25;14.30;99.90
12013;DHT22;6065;48.138;16.402;2022-10-04T18:13:56;14.30;99.90
12013;DHT22;6065;48.138;16.402;2022-10-04T18:16:25;14.30;99.90
12013;DHT22;6065;48.138;16.402;2022-10-04T18:18:53;14.30;99.90
12013;DHT22;6065;48.138;16.402;2022-10-04T18:21:22;14.40;99.90
12013;DHT22;6065;48.138;16.402;2022-10-04T18:24:17;14.30;99.90
12013;DHT22;6065;48.138;16.402;2022-10-04T18:26:52;14.20;99.90
12013;DHT22;6065;48.138;16.402;2022-10-04T18:29:33;14.10;99.90
12013;DHT22;6065;48.138;16.402;2022-10-04T18:32:11;14.10;99.90
12013;DHT22;6065;48.138;16.402;2022-10-04T18:34:40;14.00;99.90
12013;DHT22;6065;48.138;16.402;2022-10-04T18:37:13;14.00;99.90